createdAt,value
2019-01-09T00:00:05.200Z,105.30
2019-01-09T00:00:52.186Z,100.27
2019-01-09T00:01:31.826Z,98.07
2019-01-09T00:02:07.514Z,109.83
2019-01-09T00:02:43.194Z,112.55
2019-01-09T00:03:18.903Z,99.32
2019-01-09T00:03:54.760Z,120.17
2019-01-09T00:04:31.027Z,101.30
2019-01-09T00:05:07.164Z,103.95
2019-01-09T00:05:42.721Z,123.35
2019-01-09T00:06:18.458Z,107.15
2019-01-09T00:06:53.995Z,121.70
2019-01-09T00:07:29.465Z,131.27
2019-01-09T00:08:05.202Z,126.80
2019-01-09T00:08:41.049Z,119.17
2019-01-09T00:09:16.636Z,127.87
2019-01-09T00:09:52.308Z,122.02
2019-01-09T00:10:28.169Z,120.20
2019-01-09T00:11:03.797Z,153.62
2019-01-09T00:11:39.417Z,119.60
2019-01-09T00:12:14.966Z,116.60
2019-01-09T00:12:50.888Z,108.03
2019-01-09T00:13:26.547Z,106.35
2019-01-09T00:14:02.148Z,124.60
2019-01-09T00:14:37.918Z,134.30
2019-01-09T00:15:13.818Z,110.05
2019-01-09T00:15:49.381Z,96.90
2019-01-09T00:16:25.071Z,125.58
2019-01-09T00:17:00.707Z,127.97
2019-01-09T00:17:36.524Z,141.60
2019-01-09T00:18:12.244Z,119.75
2019-01-09T00:18:47.809Z,125.87
2019-01-09T00:19:23.615Z,101.05
2019-01-09T00:19:59.747Z,129.75
2019-01-09T00:20:35.537Z,130.25
2019-01-09T00:21:11.234Z,119.87
2019-01-09T00:21:46.744Z,132.03
2019-01-09T00:22:22.698Z,116.60
2019-01-09T00:22:58.244Z,108.92
2019-01-09T00:23:33.874Z,121.62
2019-01-09T00:24:09.624Z,117.17
2019-01-09T00:24:45.624Z,137.35
2019-01-09T00:25:21.412Z,115.97
2019-01-09T00:25:57.189Z,119.50
2019-01-09T00:26:32.683Z,123.05
2019-01-09T00:27:08.673Z,109.22
2019-01-09T00:27:44.575Z,149.10
2019-01-09T00:28:20.103Z,125.95
2019-01-09T00:28:55.927Z,113.00
2019-01-09T00:29:31.929Z,130.70
2019-01-09T00:30:08.550Z,106.75
2019-01-09T00:30:44.485Z,122.05
2019-01-09T00:31:20.194Z,118.90
2019-01-09T00:31:55.766Z,98.40
2019-01-09T00:32:31.406Z,126.30
2019-01-09T00:33:07.049Z,118.80
2019-01-09T00:33:42.644Z,116.77
2019-01-09T00:34:18.396Z,114.50
2019-01-09T00:34:54.032Z,136.65
2019-01-09T00:35:37.241Z,128.47
2019-01-09T00:36:07.109Z,135.22
2019-01-09T00:36:43.010Z,145.25
2019-01-09T00:37:18.487Z,129.80
2019-01-09T00:37:54.391Z,114.15
2019-01-09T00:38:30.071Z,154.57
2019-01-09T00:39:07.151Z,138.88
2019-01-09T00:39:42.870Z,128.75
2019-01-09T00:40:18.631Z,120.47
2019-01-09T00:40:54.873Z,107.30
2019-01-09T00:41:30.594Z,119.22
2019-01-09T00:42:06.421Z,110.48
2019-01-09T00:42:42.009Z,123.25
2019-01-09T00:43:17.624Z,122.85
2019-01-09T00:43:53.284Z,121.57
2019-01-09T00:44:28.981Z,129.68
2019-01-09T00:45:05.158Z,114.62
2019-01-09T00:45:40.709Z,127.30
2019-01-09T00:46:16.416Z,139.30
2019-01-09T00:46:52.141Z,138.40
2019-01-09T00:47:27.799Z,131.85
2019-01-09T00:48:03.302Z,124.92
2019-01-09T00:48:39.000Z,122.70
2019-01-09T00:49:14.785Z,116.30
2019-01-09T00:49:50.960Z,119.80
2019-01-09T00:50:26.793Z,130.70
2019-01-09T00:51:02.618Z,131.18
2019-01-09T00:51:38.285Z,113.52
2019-01-09T00:52:14.036Z,130.30
2019-01-09T00:52:49.605Z,125.00
2019-01-09T00:53:25.268Z,122.95
2019-01-09T00:54:01.090Z,131.07
2019-01-09T00:54:36.913Z,133.75
2019-01-09T00:55:12.474Z,137.00
2019-01-09T00:55:48.112Z,119.08
2019-01-09T00:56:23.663Z,137.45
2019-01-09T00:56:59.391Z,115.90
2019-01-09T00:57:35.054Z,136.05
2019-01-09T00:58:10.891Z,136.60
2019-01-09T00:58:46.626Z,136.52
2019-01-09T00:59:22.468Z,124.42
2019-01-09T00:59:58.093Z,140.88
2019-01-09T01:00:33.850Z,146.32
2019-01-09T01:01:09.751Z,107.58
2019-01-09T01:01:50.932Z,142.32
2019-01-09T01:02:59.910Z,127.12
2019-01-09T01:04:15.207Z,129.23
2019-01-09T01:05:28.109Z,106.03
2019-01-09T01:06:21.656Z,112.37
2019-01-09T01:07:44.108Z,121.20
2019-01-09T01:09:06.742Z,114.10
2019-01-09T01:10:19.142Z,118.37
2019-01-09T01:11:33.469Z,101.12
2019-01-09T01:13:01.570Z,111.05
2019-01-09T01:14:03.705Z,107.92
2019-01-09T01:15:24.520Z,131.78
2019-01-09T01:16:46.211Z,128.97
2019-01-09T01:17:55.639Z,110.50
2019-01-09T01:19:07.729Z,106.52
2019-01-09T01:20:26.981Z,121.65
2019-01-09T01:21:18.369Z,108.95
2019-01-09T01:22:09.736Z,122.85
2019-01-09T01:23:25.921Z,135.10
2019-01-09T01:24:25.850Z,118.70
2019-01-09T01:25:26.901Z,124.45
2019-01-09T01:26:25.744Z,123.45
2019-01-09T01:27:32.085Z,154.20
2019-01-09T01:28:44.374Z,141.82
2019-01-09T01:30:18.761Z,143.10
2019-01-09T01:31:37.488Z,121.70
2019-01-09T01:32:54.282Z,129.93
2019-01-09T01:34:02.147Z,112.60
2019-01-09T01:35:14.917Z,134.82
2019-01-09T01:36:29.961Z,126.10
2019-01-09T01:37:40.947Z,137.15
2019-01-09T01:39:06.874Z,120.65
2019-01-09T01:40:10.565Z,132.55
2019-01-09T01:41:08.057Z,130.67
2019-01-09T01:42:36.381Z,113.90
2019-01-09T01:43:50.836Z,126.20
2019-01-09T01:44:54.648Z,150.62
2019-01-09T01:46:02.279Z,130.40
2019-01-09T01:47:11.939Z,133.78
2019-01-09T01:48:39.048Z,165.07
2019-01-09T01:49:32.559Z,162.25
2019-01-09T01:50:58.129Z,152.25
2019-01-09T01:52:07.119Z,115.65
2019-01-09T01:53:18.189Z,120.30
2019-01-09T01:54:18.951Z,132.87
2019-01-09T01:55:27.036Z,124.27
2019-01-09T01:56:35.357Z,133.63
2019-01-09T01:57:39.374Z,167.98
2019-01-09T01:59:00.958Z,109.37
2019-01-09T01:59:54.524Z,132.22
2019-01-09T02:01:01.336Z,121.77
2019-01-09T02:02:19.389Z,124.35
2019-01-09T02:03:23.210Z,130.97
2019-01-09T02:04:18.432Z,137.82
2019-01-09T02:05:14.651Z,121.97
2019-01-09T02:06:15.409Z,132.65
2019-01-09T02:07:44.135Z,119.90
2019-01-09T02:08:51.325Z,130.15
2019-01-09T02:10:02.894Z,135.57
2019-01-09T02:11:46.774Z,129.32
2019-01-09T02:12:51.827Z,155.67
2019-01-09T02:13:44.199Z,141.32
2019-01-09T02:15:11.374Z,140.88
2019-01-09T02:16:46.196Z,146.02
2019-01-09T02:17:37.541Z,136.25
2019-01-09T02:18:30.885Z,137.90
2019-01-09T02:19:20.660Z,131.30
2019-01-09T02:20:25.439Z,118.35
2019-01-09T02:21:47.874Z,142.72
2019-01-09T02:23:08.248Z,126.45
2019-01-09T02:24:11.428Z,136.55
2019-01-09T02:25:08.910Z,141.85
2019-01-09T02:26:23.117Z,127.25
2019-01-09T02:28:00.597Z,152.20
2019-01-09T02:29:02.070Z,118.00
2019-01-09T02:30:09.535Z,129.97
2019-01-09T02:31:37.731Z,138.28
2019-01-09T02:32:32.627Z,146.95
2019-01-09T02:33:08.366Z,163.97
2019-01-09T02:33:43.957Z,190.90
2019-01-09T02:34:19.690Z,163.40
2019-01-09T02:34:55.323Z,177.00
2019-01-09T02:35:30.935Z,200.90
2019-01-09T02:36:13.401Z,170.87
2019-01-09T02:36:43.864Z,159.35
2019-01-09T02:37:20.183Z,158.07
2019-01-09T02:37:56.071Z,181.05
2019-01-09T02:38:31.601Z,158.93
2019-01-09T02:39:07.850Z,169.25
2019-01-09T02:39:43.461Z,189.05
2019-01-09T02:40:19.154Z,168.10
2019-01-09T02:40:54.753Z,172.65
2019-01-09T02:41:30.364Z,174.82
2019-01-09T02:42:06.304Z,133.65
2019-01-09T02:42:42.835Z,170.10
2019-01-09T02:43:18.404Z,163.87
2019-01-09T02:43:54.316Z,166.35
2019-01-09T02:44:32.292Z,162.18
2019-01-09T02:45:08.193Z,145.17
2019-01-09T02:45:43.983Z,174.50
2019-01-09T02:46:20.238Z,147.57
2019-01-09T02:46:55.910Z,140.68
2019-01-09T02:47:31.673Z,156.30
2019-01-09T02:48:07.298Z,196.00
2019-01-09T02:48:42.795Z,166.95
2019-01-09T02:49:19.456Z,174.35
2019-01-09T02:49:55.107Z,160.57
2019-01-09T02:50:30.726Z,159.15
2019-01-09T02:51:06.355Z,176.30
2019-01-09T02:51:42.012Z,182.27
2019-01-09T02:52:17.717Z,177.95
2019-01-09T02:52:53.502Z,169.20
2019-01-09T02:53:29.239Z,150.03
2019-01-09T02:54:05.378Z,173.28
2019-01-09T02:54:40.985Z,170.10
2019-01-09T02:55:16.499Z,156.10
2019-01-09T02:55:52.017Z,147.70
2019-01-09T02:56:30.773Z,158.52
2019-01-09T02:57:06.437Z,153.82
2019-01-09T02:57:42.246Z,173.65
2019-01-09T02:58:17.869Z,156.35
2019-01-09T02:58:53.545Z,159.60
2019-01-09T02:59:29.261Z,141.07
2019-01-09T03:00:06.227Z,130.25
2019-01-09T03:00:42.035Z,146.02
2019-01-09T03:01:17.709Z,162.55
2019-01-09T03:01:53.838Z,165.22
2019-01-09T03:02:29.594Z,141.57
2019-01-09T03:03:05.234Z,175.20
2019-01-09T03:03:40.751Z,159.07
2019-01-09T03:04:16.280Z,152.60
2019-01-09T03:04:51.789Z,159.45
2019-01-09T03:05:27.560Z,168.40
2019-01-09T03:06:03.163Z,157.37
2019-01-09T03:06:38.715Z,142.32
2019-01-09T03:07:14.637Z,169.55
2019-01-09T03:07:50.288Z,146.82
2019-01-09T03:08:25.806Z,164.55
2019-01-09T03:09:01.248Z,151.30
2019-01-09T03:09:36.879Z,159.27
2019-01-09T03:10:12.778Z,134.70
2019-01-09T03:10:48.648Z,171.13
2019-01-09T03:11:24.363Z,150.27
2019-01-09T03:11:59.981Z,164.85
2019-01-09T03:12:36.282Z,182.72
2019-01-09T03:13:11.958Z,167.28
2019-01-09T03:13:47.830Z,157.20
2019-01-09T03:14:23.383Z,181.12
2019-01-09T03:14:59.167Z,173.32
2019-01-09T03:15:35.213Z,165.60
2019-01-09T03:16:11.950Z,163.43
2019-01-09T03:16:47.543Z,160.72
2019-01-09T03:17:23.283Z,180.85
2019-01-09T03:17:59.043Z,175.45
2019-01-09T03:18:34.700Z,160.97
2019-01-09T03:19:10.494Z,188.30
2019-01-09T03:19:46.923Z,168.32
2019-01-09T03:20:22.523Z,144.32
2019-01-09T03:20:58.214Z,160.35
2019-01-09T03:21:33.719Z,153.95
2019-01-09T03:22:09.254Z,182.82
2019-01-09T03:22:44.920Z,162.18
2019-01-09T03:23:20.493Z,172.02
2019-01-09T03:23:56.158Z,166.03
2019-01-09T03:24:31.898Z,187.25
2019-01-09T03:25:07.937Z,176.57
2019-01-09T03:25:43.523Z,172.10
2019-01-09T03:26:19.241Z,166.73
2019-01-09T03:26:55.009Z,175.72
2019-01-09T03:27:30.685Z,188.57
2019-01-09T03:28:06.323Z,176.10
2019-01-09T03:28:42.013Z,193.13
2019-01-09T03:29:17.687Z,161.62
2019-01-09T03:29:53.252Z,165.30
2019-01-09T03:30:28.836Z,198.65
2019-01-09T03:31:04.463Z,180.87
2019-01-09T03:31:40.206Z,188.82
2019-01-09T03:32:16.076Z,159.52
2019-01-09T03:32:51.920Z,191.20
2019-01-09T03:33:27.741Z,165.80
2019-01-09T03:34:03.569Z,175.53
2019-01-09T03:34:39.216Z,174.35
2019-01-09T03:35:15.007Z,204.55
2019-01-09T03:35:50.405Z,176.18
2019-01-09T03:36:32.556Z,193.90
2019-01-09T03:37:03.310Z,210.00
2019-01-09T03:37:38.915Z,188.95
2019-01-09T03:38:14.576Z,175.68
2019-01-09T03:38:50.279Z,194.40
2019-01-09T03:39:25.909Z,207.80
2019-01-09T03:40:01.677Z,170.68
2019-01-09T03:40:37.306Z,195.85
2019-01-09T03:41:13.237Z,173.53
2019-01-09T03:41:49.027Z,193.17
2019-01-09T03:42:24.698Z,165.30
2019-01-09T03:43:00.241Z,211.07
2019-01-09T03:43:35.977Z,188.10
2019-01-09T03:44:11.759Z,199.53
2019-01-09T03:44:47.357Z,187.57
2019-01-09T03:45:23.095Z,180.18
2019-01-09T03:45:59.080Z,183.70
2019-01-09T03:46:34.603Z,179.93
2019-01-09T03:47:10.202Z,195.60
2019-01-09T03:47:45.779Z,198.75
2019-01-09T03:48:21.346Z,220.65
2019-01-09T03:48:56.934Z,202.93
2019-01-09T03:49:32.587Z,214.78
2019-01-09T03:50:08.972Z,225.68
2019-01-09T03:50:44.661Z,217.13
2019-01-09T03:51:20.598Z,247.63
2019-01-09T03:51:56.217Z,193.68
2019-01-09T03:52:31.843Z,209.10
2019-01-09T03:53:07.604Z,187.85
2019-01-09T03:53:43.441Z,235.63
2019-01-09T03:54:18.979Z,212.12
2019-01-09T03:54:54.699Z,218.10
2019-01-09T03:55:30.342Z,220.88
2019-01-09T03:56:05.946Z,213.15
2019-01-09T03:56:41.503Z,217.10
2019-01-09T03:57:17.239Z,163.35
2019-01-09T03:57:52.872Z,162.90
2019-01-09T03:58:28.395Z,222.73
2019-01-09T03:59:04.006Z,226.05
2019-01-09T03:59:39.581Z,192.37
2019-01-09T04:00:15.111Z,208.13
2019-01-09T04:00:50.819Z,222.27
2019-01-09T04:01:26.336Z,227.03
2019-01-09T04:02:01.982Z,243.12
2019-01-09T04:02:37.977Z,169.87
2019-01-09T04:03:13.583Z,187.22
2019-01-09T04:03:49.238Z,190.75
2019-01-09T04:04:25.100Z,205.52
2019-01-09T04:05:00.733Z,225.95
2019-01-09T04:06:53.732Z,185.73
2019-01-09T04:07:29.350Z,226.02
2019-01-09T04:08:05.073Z,231.70
2019-01-09T04:08:41.145Z,209.80
2019-01-09T04:09:16.983Z,230.45
2019-01-09T04:09:52.712Z,228.15
2019-01-09T04:10:28.583Z,233.63
2019-01-09T04:11:04.497Z,218.82
2019-01-09T04:11:40.523Z,233.05
2019-01-09T04:12:16.669Z,253.62
2019-01-09T04:12:52.606Z,203.00
2019-01-09T04:13:28.427Z,226.60
2019-01-09T04:14:04.406Z,203.60
2019-01-09T04:14:40.305Z,216.73
2019-01-09T04:15:16.385Z,227.43
2019-01-09T04:15:52.223Z,205.95
2019-01-09T04:16:28.305Z,207.62
2019-01-09T04:17:04.068Z,214.95
2019-01-09T04:17:40.049Z,208.17
2019-01-09T04:18:15.800Z,194.15
2019-01-09T04:18:52.435Z,194.70
2019-01-09T04:19:28.587Z,199.60
2019-01-09T04:20:04.557Z,196.75
2019-01-09T04:20:40.292Z,223.18
2019-01-09T04:21:16.134Z,193.85
2019-01-09T04:21:51.936Z,230.50
2019-01-09T04:22:28.307Z,232.25
2019-01-09T04:23:04.463Z,214.97
2019-01-09T04:23:40.469Z,210.78
2019-01-09T04:24:16.270Z,258.60
2019-01-09T04:24:52.031Z,216.10
2019-01-09T04:25:27.734Z,249.47
2019-01-09T04:26:03.499Z,238.03
2019-01-09T04:26:39.469Z,223.32
2019-01-09T04:27:15.418Z,229.53
2019-01-09T04:27:51.350Z,200.82
2019-01-09T04:28:26.901Z,231.87
2019-01-09T04:29:02.884Z,229.47
2019-01-09T04:29:39.112Z,226.90
2019-01-09T04:30:14.944Z,241.65
2019-01-09T04:30:50.866Z,211.22
2019-01-09T04:31:26.647Z,215.47
2019-01-09T04:32:02.355Z,236.30
2019-01-09T04:32:38.127Z,246.25
2019-01-09T04:33:13.792Z,235.48
2019-01-09T04:33:49.842Z,266.82
2019-01-09T04:34:25.136Z,222.37
2019-01-09T04:35:00.611Z,230.00
2019-01-09T04:35:35.906Z,225.10
2019-01-09T04:36:11.173Z,249.07
2019-01-09T04:36:51.338Z,221.43
2019-01-09T04:37:23.466Z,280.10
2019-01-09T04:37:58.908Z,238.92
2019-01-09T04:38:34.726Z,241.50
2019-01-09T04:39:10.040Z,277.80
2019-01-09T04:39:45.838Z,227.18
2019-01-09T04:40:21.250Z,224.05
2019-01-09T04:40:56.724Z,230.35
2019-01-09T04:41:32.095Z,220.25
2019-01-09T04:42:07.556Z,228.10
2019-01-09T04:42:43.062Z,206.28
2019-01-09T04:43:18.857Z,228.05
2019-01-09T04:43:54.426Z,238.80
2019-01-09T04:44:30.051Z,259.40
2019-01-09T04:45:05.718Z,258.73
2019-01-09T04:45:41.658Z,286.67
2019-01-09T04:46:17.186Z,218.25
2019-01-09T04:46:53.008Z,208.60
2019-01-09T04:47:28.446Z,225.80
2019-01-09T04:48:03.882Z,217.82
2019-01-09T04:48:39.404Z,224.27
2019-01-09T04:49:14.774Z,261.75
2019-01-09T04:49:50.269Z,246.70
2019-01-09T04:50:25.956Z,245.82
2019-01-09T04:51:01.835Z,265.75
2019-01-09T04:51:37.207Z,235.97
2019-01-09T04:52:12.634Z,235.90
2019-01-09T04:52:48.046Z,251.45
2019-01-09T04:53:23.382Z,229.03
2019-01-09T04:53:59.469Z,305.85
2019-01-09T04:54:35.056Z,251.30
2019-01-09T04:55:10.683Z,227.80
2019-01-09T04:55:46.064Z,243.82
2019-01-09T04:56:21.609Z,266.55
2019-01-09T04:56:57.086Z,252.25
2019-01-09T04:57:32.516Z,269.18
2019-01-09T04:58:07.843Z,247.12
2019-01-09T04:58:43.408Z,256.17
2019-01-09T04:59:18.833Z,258.10
2019-01-09T04:59:54.455Z,320.73
2019-01-09T05:00:30.066Z,270.02
2019-01-09T05:01:05.519Z,244.50
2019-01-09T05:01:40.966Z,199.77
2019-01-09T05:02:16.478Z,229.80
2019-01-09T05:02:51.972Z,231.65
2019-01-09T05:03:27.452Z,253.85
2019-01-09T05:04:02.890Z,251.02
2019-01-09T05:04:38.423Z,250.13
2019-01-09T05:05:13.941Z,252.75
2019-01-09T05:05:49.573Z,320.37
2019-01-09T05:06:25.120Z,339.27
2019-01-09T05:07:01.003Z,292.85
2019-01-09T05:07:36.719Z,260.05
2019-01-09T05:08:12.119Z,282.50
2019-01-09T05:08:47.746Z,233.47
2019-01-09T05:09:23.356Z,263.35
2019-01-09T05:09:58.801Z,251.27
2019-01-09T05:10:34.230Z,210.68
2019-01-09T05:11:09.691Z,267.85
2019-01-09T05:11:45.098Z,255.30
2019-01-09T05:12:20.672Z,264.38
2019-01-09T05:12:56.244Z,256.50
2019-01-09T05:13:32.014Z,252.75
2019-01-09T05:14:07.690Z,280.65
2019-01-09T05:14:43.206Z,284.07
2019-01-09T05:15:18.715Z,223.57
2019-01-09T05:15:54.267Z,249.30
2019-01-09T05:16:29.933Z,251.05
2019-01-09T05:17:05.460Z,250.25
2019-01-09T05:17:41.539Z,271.13
2019-01-09T05:18:17.003Z,292.70
2019-01-09T05:18:52.482Z,295.65
2019-01-09T05:19:27.988Z,246.10
2019-01-09T05:20:03.607Z,248.90
2019-01-09T05:20:39.208Z,283.87
2019-01-09T05:21:14.641Z,260.17
2019-01-09T05:21:50.209Z,238.05
2019-01-09T05:22:25.623Z,276.82
2019-01-09T05:23:01.194Z,251.00
2019-01-09T05:23:36.813Z,286.02
2019-01-09T05:24:12.160Z,301.20
2019-01-09T05:24:47.620Z,299.70
2019-01-09T05:25:23.587Z,314.02
2019-01-09T05:25:59.428Z,246.80
2019-01-09T05:26:34.877Z,293.02
2019-01-09T05:27:10.428Z,239.85
2019-01-09T05:27:46.036Z,290.75
2019-01-09T05:28:21.559Z,234.45
2019-01-09T05:28:56.889Z,233.40
2019-01-09T05:29:32.332Z,259.10
2019-01-09T05:30:07.831Z,272.85
2019-01-09T05:30:43.287Z,265.02
2019-01-09T05:31:18.723Z,294.57
2019-01-09T05:31:54.166Z,258.20
2019-01-09T05:32:29.574Z,241.78
2019-01-09T05:33:04.912Z,262.12
2019-01-09T05:33:40.448Z,272.60
2019-01-09T05:34:16.285Z,263.80
2019-01-09T05:34:51.770Z,276.60
2019-01-09T05:35:27.346Z,267.23
2019-01-09T05:36:02.882Z,232.77
2019-01-09T05:36:38.230Z,239.23
2019-01-09T05:37:13.650Z,234.40
2019-01-09T05:37:49.126Z,286.67
2019-01-09T05:38:24.624Z,249.05
2019-01-09T05:39:00.250Z,270.10
2019-01-09T05:39:39.731Z,264.70
2019-01-09T05:40:12.950Z,274.62
2019-01-09T05:40:48.580Z,292.60
2019-01-09T05:41:24.538Z,309.48
2019-01-09T05:42:00.068Z,245.25
2019-01-09T05:42:35.579Z,228.40
2019-01-09T05:43:11.129Z,202.55
2019-01-09T05:43:46.458Z,217.30
2019-01-09T05:44:22.008Z,278.02
2019-01-09T05:44:57.855Z,254.32
2019-01-09T05:45:33.586Z,241.95
2019-01-09T05:46:09.171Z,229.13
2019-01-09T05:46:44.637Z,238.47
2019-01-09T05:47:20.088Z,228.40
2019-01-09T05:47:55.659Z,287.15
2019-01-09T05:48:31.139Z,266.45
2019-01-09T05:49:06.448Z,235.78
2019-01-09T05:49:41.981Z,261.75
2019-01-09T05:50:17.421Z,287.55
2019-01-09T05:50:52.814Z,282.15
2019-01-09T05:51:28.282Z,295.73
2019-01-09T05:52:03.697Z,273.68
2019-01-09T05:52:39.045Z,258.05
2019-01-09T05:53:14.461Z,228.27
2019-01-09T05:53:50.059Z,300.00
2019-01-09T05:54:25.553Z,255.07
2019-01-09T05:55:01.060Z,258.90
2019-01-09T05:55:36.508Z,275.85
2019-01-09T05:56:12.121Z,291.27
2019-01-09T05:56:47.780Z,273.55
2019-01-09T05:57:23.236Z,240.05
2019-01-09T05:57:58.740Z,279.80
2019-01-09T05:58:34.230Z,259.45
2019-01-09T05:59:09.758Z,252.62
2019-01-09T05:59:45.225Z,310.35
2019-01-09T06:00:20.953Z,247.55
2019-01-09T06:00:56.544Z,249.58
2019-01-09T06:01:32.031Z,283.20
2019-01-09T06:02:07.635Z,242.97
2019-01-09T06:02:43.255Z,269.50
2019-01-09T06:03:18.619Z,255.85
2019-01-09T06:03:54.240Z,262.48
2019-01-09T06:04:29.584Z,244.20
2019-01-09T06:05:05.120Z,263.62
2019-01-09T06:05:40.519Z,292.45
2019-01-09T06:06:16.000Z,302.13
2019-01-09T06:06:51.451Z,226.85
2019-01-09T06:07:27.111Z,236.35
2019-01-09T06:08:02.474Z,231.93
2019-01-09T06:08:37.926Z,220.40
2019-01-09T06:09:13.180Z,224.75
2019-01-09T06:09:48.589Z,237.23
2019-01-09T06:10:23.859Z,191.20
2019-01-09T06:10:59.462Z,237.02
2019-01-09T06:11:34.980Z,227.18
2019-01-09T06:12:10.379Z,229.10
2019-01-09T06:12:45.948Z,264.90
2019-01-09T06:13:21.445Z,207.87
2019-01-09T06:13:56.983Z,231.07
2019-01-09T06:14:32.511Z,254.05
2019-01-09T06:15:08.794Z,237.55
2019-01-09T06:15:44.480Z,238.65
2019-01-09T06:16:19.961Z,202.78
2019-01-09T06:16:55.505Z,206.82
2019-01-09T06:17:31.012Z,221.77
2019-01-09T06:18:06.432Z,232.32
2019-01-09T06:18:41.730Z,217.55
2019-01-09T06:19:17.254Z,250.35
2019-01-09T06:19:52.801Z,259.12
2019-01-09T06:20:28.437Z,216.82
2019-01-09T06:21:04.118Z,264.23
2019-01-09T06:21:39.536Z,254.43
2019-01-09T06:22:15.083Z,257.18
2019-01-09T06:22:50.691Z,245.07
2019-01-09T06:23:26.402Z,226.07
2019-01-09T06:24:02.275Z,267.15
2019-01-09T06:24:37.815Z,291.27
2019-01-09T06:25:13.254Z,303.62
2019-01-09T06:25:48.830Z,318.23
2019-01-09T06:26:24.410Z,305.45
2019-01-09T06:26:59.972Z,280.90
2019-01-09T06:27:35.472Z,298.70
2019-01-09T06:28:10.961Z,250.85
2019-01-09T06:28:46.733Z,295.45
2019-01-09T06:29:22.394Z,299.20
2019-01-09T06:29:58.049Z,327.62
2019-01-09T06:30:33.728Z,292.32
2019-01-09T06:31:09.324Z,294.65
2019-01-09T06:31:44.794Z,333.60
2019-01-09T06:32:20.276Z,378.30
2019-01-09T06:32:55.651Z,329.27
2019-01-09T06:33:31.312Z,321.27
2019-01-09T06:34:06.826Z,307.15
2019-01-09T06:34:42.347Z,275.90
2019-01-09T06:35:18.025Z,345.55
2019-01-09T06:35:53.597Z,322.70
2019-01-09T06:36:29.161Z,338.70
2019-01-09T06:37:04.636Z,322.27
2019-01-09T06:37:40.034Z,317.10
2019-01-09T06:38:15.488Z,293.80
2019-01-09T06:38:50.909Z,292.43
2019-01-09T06:39:26.332Z,328.15
2019-01-09T06:40:02.100Z,318.37
2019-01-09T06:40:37.601Z,341.25
2019-01-09T06:41:13.209Z,283.87
2019-01-09T06:41:48.892Z,296.95
2019-01-09T06:42:24.625Z,255.32
2019-01-09T06:43:00.074Z,334.65
2019-01-09T06:43:35.474Z,321.50
2019-01-09T06:44:10.894Z,263.40
2019-01-09T06:44:46.498Z,319.05
2019-01-09T06:45:22.118Z,295.37
2019-01-09T06:45:57.825Z,304.27
2019-01-09T06:46:33.487Z,262.52
2019-01-09T06:47:09.190Z,291.60
2019-01-09T06:47:44.741Z,299.60
2019-01-09T06:48:20.283Z,297.35
2019-01-09T06:48:56.019Z,284.55
2019-01-09T06:49:32.011Z,309.95
2019-01-09T06:50:11.725Z,301.23
2019-01-09T06:50:47.204Z,289.20
2019-01-09T06:51:22.806Z,317.07
2019-01-09T06:51:58.166Z,313.00
2019-01-09T06:52:33.767Z,288.98
2019-01-09T06:53:09.365Z,288.60
2019-01-09T06:53:44.993Z,255.65
2019-01-09T06:54:20.539Z,275.73
2019-01-09T06:54:56.073Z,318.50
2019-01-09T06:55:32.122Z,335.52
2019-01-09T06:56:07.742Z,338.37
2019-01-09T06:56:43.288Z,299.65
2019-01-09T06:57:19.012Z,311.87
2019-01-09T06:57:54.589Z,321.75
2019-01-09T06:58:30.048Z,244.82
2019-01-09T06:59:05.595Z,300.45
2019-01-09T06:59:41.104Z,336.00
2019-01-09T07:00:16.617Z,294.93
2019-01-09T07:00:52.100Z,318.33
2019-01-09T07:01:27.622Z,294.40
2019-01-09T07:02:03.186Z,285.98
2019-01-09T07:02:39.186Z,336.62
2019-01-09T07:03:14.604Z,292.43
2019-01-09T07:03:50.149Z,299.35
2019-01-09T07:04:25.759Z,321.85
2019-01-09T07:05:01.210Z,315.48
2019-01-09T07:05:36.748Z,279.87
2019-01-09T07:06:12.393Z,335.93
2019-01-09T07:06:47.841Z,317.00
2019-01-09T07:07:23.357Z,281.00
2019-01-09T07:07:58.802Z,271.62
2019-01-09T07:08:34.856Z,285.98
2019-01-09T07:09:10.376Z,297.72
2019-01-09T07:09:45.924Z,321.98
2019-01-09T07:10:21.532Z,299.15
2019-01-09T07:10:57.195Z,304.43
2019-01-09T07:11:32.615Z,273.43
2019-01-09T07:12:08.139Z,245.52
2019-01-09T07:12:43.652Z,274.75
2019-01-09T07:13:19.268Z,267.00
2019-01-09T07:13:54.801Z,249.73
2019-01-09T07:14:30.379Z,246.47
2019-01-09T07:15:11.443Z,272.37
2019-01-09T07:15:43.397Z,234.80
2019-01-09T07:16:18.813Z,273.38
2019-01-09T07:16:54.369Z,265.43
2019-01-09T07:17:29.971Z,211.30
2019-01-09T07:18:05.587Z,290.80
2019-01-09T07:18:41.156Z,294.43
2019-01-09T07:19:16.554Z,242.47
2019-01-09T07:19:52.114Z,249.80
2019-01-09T07:20:27.806Z,262.45
2019-01-09T07:21:03.389Z,269.95
2019-01-09T07:21:45.405Z,275.02
2019-01-09T07:22:16.314Z,269.15
2019-01-09T07:22:51.694Z,295.50
2019-01-09T07:23:27.114Z,285.27
2019-01-09T07:24:02.560Z,274.10
2019-01-09T07:24:38.278Z,249.80
2019-01-09T07:25:13.799Z,279.98
2019-01-09T07:25:49.394Z,283.20
2019-01-09T07:26:25.178Z,264.42
2019-01-09T07:27:00.854Z,272.67
2019-01-09T07:27:36.381Z,266.15
2019-01-09T07:28:11.907Z,265.45
2019-01-09T07:28:47.465Z,265.90
2019-01-09T07:29:23.262Z,271.48
2019-01-09T07:29:58.877Z,274.65
2019-01-09T07:30:34.338Z,276.18
2019-01-09T07:31:09.796Z,302.50
2019-01-09T07:31:45.199Z,294.40
2019-01-09T07:32:20.820Z,295.35
2019-01-09T07:32:56.267Z,276.07
2019-01-09T07:33:32.331Z,275.82
2019-01-09T07:34:07.980Z,259.10
2019-01-09T07:34:43.480Z,257.77
2019-01-09T07:35:18.990Z,263.02
2019-01-09T07:35:54.459Z,291.57
2019-01-09T07:36:29.993Z,260.98
2019-01-09T07:37:05.550Z,272.15
2019-01-09T07:37:45.337Z,265.23
2019-01-09T07:38:18.440Z,273.77
2019-01-09T07:38:53.870Z,273.07
2019-01-09T07:39:29.390Z,275.35
2019-01-09T07:40:05.293Z,258.95
2019-01-09T07:40:41.030Z,292.35
2019-01-09T07:41:16.730Z,300.48
2019-01-09T07:41:52.349Z,268.42
2019-01-09T07:42:28.337Z,275.15
2019-01-09T07:43:04.053Z,275.70
2019-01-09T07:43:39.478Z,289.52
2019-01-09T07:44:14.829Z,292.25
2019-01-09T07:44:50.468Z,291.50
2019-01-09T07:45:25.974Z,272.17
2019-01-09T07:46:01.855Z,265.90
2019-01-09T07:46:39.606Z,263.68
2019-01-09T07:47:15.321Z,250.78
2019-01-09T07:47:50.854Z,303.67
2019-01-09T07:48:26.303Z,285.65
2019-01-09T07:49:01.851Z,282.68
2019-01-09T07:49:37.370Z,269.68
2019-01-09T07:50:13.326Z,285.88
2019-01-09T07:50:48.877Z,273.23
2019-01-09T07:51:24.459Z,253.95
2019-01-09T07:51:59.890Z,292.87
2019-01-09T07:52:35.450Z,286.43
2019-01-09T07:53:10.857Z,298.45
2019-01-09T07:53:46.306Z,285.32
2019-01-09T07:54:21.831Z,281.93
2019-01-09T07:54:57.387Z,256.50
2019-01-09T07:55:32.908Z,273.55
2019-01-09T07:56:08.459Z,259.65
2019-01-09T07:56:44.356Z,232.72
2019-01-09T07:57:20.383Z,238.52
2019-01-09T07:57:55.933Z,244.57
2019-01-09T07:58:31.458Z,238.70
2019-01-09T07:59:06.920Z,216.33
2019-01-09T07:59:42.442Z,227.65
2019-01-09T08:00:18.049Z,224.47
2019-01-09T08:00:53.601Z,212.15
2019-01-09T08:01:29.136Z,251.37
2019-01-09T08:02:05.015Z,238.47
2019-01-09T08:02:40.542Z,209.55
2019-01-09T08:03:16.068Z,238.25
2019-01-09T08:03:51.697Z,226.75
2019-01-09T08:04:27.216Z,212.78
2019-01-09T08:05:02.977Z,223.32
2019-01-09T08:05:38.759Z,229.47
2019-01-09T08:06:14.487Z,248.28
2019-01-09T08:06:50.158Z,219.65
2019-01-09T08:07:25.655Z,238.62
2019-01-09T08:08:01.158Z,250.13
2019-01-09T08:08:36.681Z,200.65
2019-01-09T08:09:12.325Z,222.50
2019-01-09T08:09:48.039Z,211.62
2019-01-09T08:10:24.019Z,203.35
2019-01-09T08:10:59.512Z,240.65
2019-01-09T08:11:35.054Z,238.77